Time;durP1;ratioP1;P1;durP2;ratioP2;P2;SDS_P1;SDS_P2;PMS_P1;PMS_P2;Temp;Humidity;BMP_temperature;BMP_pressure;BME280_temperature;BME280_humidity;BME280_pressure;Samples;Min_cycle;Max_cycle;Signal;HPM_P1;HPM_P2
2022/06/23 00:02:04;;;;;;;11.98;7.32;;;;;;;;;;5000019;28;20587;-68
2022/06/23 00:04:38;;;;;;;14.65;7.15;;;;;;;;;;5000969;28;20227;-68
2022/06/23 00:07:06;;;;;;;11.45;7.20;;;;;;;;;;5000208;28;20646;-69
2022/06/23 00:09:40;;;;;;;13.13;6.95;;;;;;;;;;5000214;28;20281;-69
2022/06/23 00:12:18;;;;;;;14.38;7.32;;;;;;;;;;5000706;28;20281;-69
2022/06/23 00:14:44;;;;;;;13.35;7.53;;;;;;;;;;4999737;28;20277;-69
2022/06/23 00:17:33;;;;;;;11.45;6.88;;;;;;;;;;4999516;28;20362;-69
2022/06/23 00:20:05;;;;;;;13.63;6.97;;;;;;;;;;5000845;28;20313;-69
2022/06/23 00:22:32;;;;;;;14.73;7.75;;;;;;;;;;4999261;28;20194;-69
2022/06/23 00:25:01;;;;;;;14.15;6.70;;;;;;;;;;4998195;28;20575;-69
2022/06/23 00:27:31;;;;;;;10.85;6.75;;;;;;;;;;4999930;28;20226;-68
2022/06/23 00:30:03;;;;;;;16.45;6.95;;;;;;;;;;4999452;28;20182;-69
2022/06/23 00:32:30;;;;;;;13.93;7.15;;;;;;;;;;5001575;28;20367;-69
2022/06/23 00:35:03;;;;;;;12.05;6.70;;;;;;;;;;4999336;28;20705;-69
2022/06/23 00:37:29;;;;;;;18.23;7.07;;;;;;;;;;4999327;28;20175;-69
2022/06/23 00:39:59;;;;;;;12.77;6.70;;;;;;;;;;4999360;28;20198;-68
2022/06/23 00:42:31;;;;;;;12.73;7.38;;;;;;;;;;4998180;28;20225;-69
2022/06/23 00:45:11;;;;;;;12.10;7.03;;;;;;;;;;4998921;28;20395;-69
2022/06/23 00:47:46;;;;;;;11.82;6.47;;;;;;;;;;4997199;28;20186;-67
2022/06/23 00:50:19;;;;;;;12.65;7.22;;;;;;;;;;4997537;28;20658;-67
2022/06/23 00:52:57;;;;;;;11.10;5.95;;;;;;;;;;4999012;28;20186;-68
2022/06/23 00:55:31;;;;;;;12.65;6.97;;;;;;;;;;4999089;28;20186;-69
2022/06/23 00:58:01;;;;;;;13.85;7.18;;;;;;;;;;4995033;28;20240;-68
2022/06/23 01:00:34;;;;;;;11.93;6.95;;;;;;;;;;4998796;28;20202;-67
2022/06/23 01:03:03;;;;;;;14.13;6.40;;;;;;;;;;4995378;28;20269;-69
2022/06/23 01:05:53;;;;;;;12.63;6.82;;;;;;;;;;4998376;28;20185;-69
2022/06/23 01:08:39;;;;;;;11.15;6.70;;;;;;;;;;4999249;28;20206;-69
2022/06/23 01:11:14;;;;;;;13.80;7.05;;;;;;;;;;5013160;28;20244;-68
2022/06/23 01:14:17;;;;;;;13.63;7.28;;;;;;;;;;5015049;28;20548;-68
2022/06/23 01:17:08;;;;;;;15.07;7.82;;;;;;;;;;4998167;28;20174;-68
2022/06/23 01:19:58;;;;;;;13.23;7.32;;;;;;;;;;4992019;28;20665;-69
2022/06/23 01:22:46;;;;;;;14.70;8.18;;;;;;;;;;4998580;28;20586;-68
2022/06/23 01:25:34;;;;;;;16.42;8.65;;;;;;;;;;4998049;28;20186;-69
2022/06/23 01:28:13;;;;;;;15.68;8.35;;;;;;;;;;4997016;28;20270;-69
2022/06/23 01:30:53;;;;;;;11.40;7.90;;;;;;;;;;4997035;28;20409;-68
2022/06/23 01:33:33;;;;;;;18.27;9.35;;;;;;;;;;4995549;28;20195;-69
2022/06/23 01:36:06;;;;;;;13.23;7.70;;;;;;;;;;4999088;28;20193;-68
2022/06/23 01:39:20;;;;;;;13.70;8.05;;;;;;;;;;4999069;28;20599;-68
2022/06/23 01:41:56;;;;;;;17.90;8.45;;;;;;;;;;4988361;28;20205;-69
2022/06/23 01:44:52;;;;;;;13.43;6.85;;;;;;;;;;4998561;28;20209;-69
2022/06/23 01:47:43;;;;;;;13.13;7.35;;;;;;;;;;4996381;28;20187;-67
2022/06/23 01:50:12;;;;;;;15.40;8.00;;;;;;;;;;4991726;28;20325;-69
2022/06/23 01:52:38;;;;;;;12.13;7.72;;;;;;;;;;4995023;28;20186;-68
2022/06/23 01:55:13;;;;;;;10.15;7.88;;;;;;;;;;4998683;28;20236;-68
2022/06/23 01:57:48;;;;;;;14.35;8.15;;;;;;;;;;4997164;28;20225;-69
2022/06/23 02:00:18;;;;;;;13.32;7.63;;;;;;;;;;4997599;28;20226;-68
2022/06/23 02:02:46;;;;;;;16.77;7.85;;;;;;;;;;4997511;28;20216;-68
2022/06/23 02:05:45;;;;;;;9.93;7.55;;;;;;;;;;5000658;28;20186;-68
2022/06/23 02:08:42;;;;;;;12.27;8.65;;;;;;;;;;4997311;28;20198;-69
2022/06/23 02:11:29;;;;;;;14.30;8.00;;;;;;;;;;4998579;28;20217;-69
2022/06/23 02:14:11;;;;;;;10.43;7.43;;;;;;;;;;4999692;28;20190;-68
2022/06/23 02:17:12;;;;;;;11.95;7.53;;;;;;;;;;5002331;28;20468;-69
2022/06/23 02:19:44;;;;;;;12.05;8.23;;;;;;;;;;4996268;28;20331;-68
2022/06/23 02:22:25;;;;;;;15.32;8.80;;;;;;;;;;5001711;28;20194;-68
2022/06/23 02:25:29;;;;;;;13.82;7.95;;;;;;;;;;5000224;28;20201;-68
2022/06/23 02:28:14;;;;;;;13.00;8.45;;;;;;;;;;4999877;28;20226;-68
2022/06/23 02:30:50;;;;;;;12.88;9.30;;;;;;;;;;5001117;28;20186;-68
2022/06/23 02:33:30;;;;;;;15.52;8.68;;;;;;;;;;5002551;28;20174;-68
2022/06/23 02:36:21;;;;;;;18.25;9.50;;;;;;;;;;5000879;28;20214;-67
2022/06/23 02:38:54;;;;;;;14.70;9.88;;;;;;;;;;5002262;28;20179;-67
2022/06/23 02:41:48;;;;;;;12.45;8.93;;;;;;;;;;4999612;28;20187;-68
2022/06/23 02:44:19;;;;;;;14.32;7.88;;;;;;;;;;4992068;28;21636;-68
2022/06/23 02:47:03;;;;;;;13.98;8.75;;;;;;;;;;5002366;28;20234;-69
2022/06/23 02:49:35;;;;;;;13.02;8.07;;;;;;;;;;4999106;28;20201;-68
2022/06/23 02:52:23;;;;;;;12.23;8.35;;;;;;;;;;5001187;28;20585;-67
2022/06/23 02:55:06;;;;;;;16.00;9.23;;;;;;;;;;5001415;28;20545;-67
2022/06/23 02:57:34;;;;;;;14.43;8.07;;;;;;;;;;5000201;28;20198;-69
2022/06/23 03:00:12;;;;;;;13.02;8.35;;;;;;;;;;5002631;28;20259;-67
2022/06/23 03:02:55;;;;;;;15.65;8.55;;;;;;;;;;5000049;28;20240;-68
2022/06/23 03:05:35;;;;;;;14.02;8.60;;;;;;;;;;5000864;28;20206;-68
2022/06/23 03:08:09;;;;;;;12.40;8.35;;;;;;;;;;5000207;28;20187;-69
2022/06/23 03:10:46;;;;;;;14.40;8.52;;;;;;;;;;5001470;28;20229;-69
2022/06/23 03:13:40;;;;;;;12.82;8.90;;;;;;;;;;5002507;28;20418;-68
2022/06/23 03:16:22;;;;;;;16.00;8.90;;;;;;;;;;5000416;28;20191;-68
2022/06/23 03:19:02;;;;;;;15.35;9.15;;;;;;;;;;5001105;28;20187;-68
2022/06/23 03:21:31;;;;;;;13.77;7.97;;;;;;;;;;5001336;28;20824;-68
2022/06/23 03:24:08;;;;;;;11.60;7.95;;;;;;;;;;5002293;28;20774;-67
2022/06/23 03:26:52;;;;;;;14.50;8.75;;;;;;;;;;4997527;28;20182;-68
2022/06/23 03:29:31;;;;;;;12.90;9.13;;;;;;;;;;4999975;28;20221;-68
2022/06/23 03:32:11;;;;;;;13.63;8.63;;;;;;;;;;4999600;28;20210;-67
2022/06/23 03:34:49;;;;;;;14.00;8.20;;;;;;;;;;5000128;28;20282;-68
2022/06/23 03:37:20;;;;;;;16.90;9.40;;;;;;;;;;4999697;28;20194;-68
2022/06/23 03:43:12;;;;;;;12.25;8.45;;;;;;;;;;4988789;28;20730;-68
2022/06/23 03:45:45;;;;;;;13.27;8.20;;;;;;;;;;4999793;28;20193;-68
2022/06/23 03:48:23;;;;;;;16.50;9.27;;;;;;;;;;4998115;28;20648;-67
2022/06/23 03:51:18;;;;;;;16.02;8.50;;;;;;;;;;4997678;28;20199;-68
2022/06/23 03:53:53;;;;;;;14.60;8.35;;;;;;;;;;4995688;28;20608;-69
2022/06/23 03:56:22;;;;;;;13.77;7.40;;;;;;;;;;5012960;28;20273;-69
2022/06/23 03:59:13;;;;;;;15.52;8.07;;;;;;;;;;5014610;28;20233;-67
2022/06/23 04:01:50;;;;;;;10.23;7.68;;;;;;;;;;4999199;28;20182;-68
2022/06/23 04:04:19;;;;;;;12.57;7.97;;;;;;;;;;4998439;28;20645;-68
2022/06/23 04:06:47;;;;;;;11.90;8.10;;;;;;;;;;4999487;28;20207;-67
2022/06/23 04:09:26;;;;;;;10.32;8.18;;;;;;;;;;4999796;28;20179;-69
2022/06/23 04:11:56;;;;;;;13.50;8.50;;;;;;;;;;5000361;28;20599;-67
2022/06/23 04:14:37;;;;;;;13.50;7.72;;;;;;;;;;5000696;28;20233;-69
2022/06/23 04:17:15;;;;;;;12.07;7.63;;;;;;;;;;5001143;28;20592;-68
2022/06/23 04:19:45;;;;;;;14.52;7.03;;;;;;;;;;4997768;28;20190;-68
2022/06/23 04:22:17;;;;;;;10.75;7.00;;;;;;;;;;5000007;28;20594;-68
2022/06/23 04:24:46;;;;;;;10.60;7.18;;;;;;;;;;4998885;28;20202;-69
2022/06/23 04:27:20;;;;;;;13.35;7.90;;;;;;;;;;5002155;28;20655;-68
2022/06/23 04:29:50;;;;;;;12.88;7.70;;;;;;;;;;4998613;28;20183;-66
2022/06/23 04:32:22;;;;;;;14.52;7.80;;;;;;;;;;4999146;28;20276;-68
2022/06/23 04:35:20;;;;;;;14.70;6.38;;;;;;;;;;4998503;28;20179;-70
2022/06/23 04:38:05;;;;;;;10.27;6.78;;;;;;;;;;4990738;28;20249;-68
2022/06/23 04:40:36;;;;;;;10.77;6.65;;;;;;;;;;4998360;28;20194;-70
2022/06/23 04:43:12;;;;;;;8.70;6.25;;;;;;;;;;4998545;28;20238;-71
2022/06/23 04:45:47;;;;;;;10.00;6.32;;;;;;;;;;4999452;28;20285;-71
2022/06/23 04:48:34;;;;;;;10.20;6.38;;;;;;;;;;4998459;28;20294;-69
2022/06/23 04:51:16;;;;;;;11.02;6.13;;;;;;;;;;4999051;28;20194;-70
2022/06/23 04:53:51;;;;;;;11.93;5.88;;;;;;;;;;4998886;28;20237;-69
2022/06/23 04:56:25;;;;;;;9.35;5.47;;;;;;;;;;4997988;28;20288;-71
2022/06/23 04:58:56;;;;;;;8.32;5.75;;;;;;;;;;4998299;28;20369;-69
2022/06/23 05:01:26;;;;;;;10.80;6.20;;;;;;;;;;4999889;28;20242;-67
2022/06/23 05:03:57;;;;;;;9.85;6.40;;;;;;;;;;4998349;28;20239;-70
2022/06/23 05:06:42;;;;;;;8.52;5.60;;;;;;;;;;4999989;28;20183;-69
2022/06/23 05:09:10;;;;;;;9.50;6.07;;;;;;;;;;4999286;28;20622;-69
2022/06/23 05:11:43;;;;;;;9.07;6.40;;;;;;;;;;4998349;28;20197;-68
2022/06/23 05:14:52;;;;;;;7.38;5.72;;;;;;;;;;4999122;28;20183;-70
2022/06/23 05:17:22;;;;;;;12.07;6.43;;;;;;;;;;4972995;28;20672;-70
2022/06/23 05:19:51;;;;;;;11.63;6.40;;;;;;;;;;4999488;28;20183;-71
2022/06/23 05:22:40;;;;;;;9.93;6.70;;;;;;;;;;4996853;28;20194;-70
2022/06/23 05:25:40;;;;;;;11.98;7.20;;;;;;;;;;4997368;28;20193;-70
2022/06/23 05:28:12;;;;;;;9.27;6.82;;;;;;;;;;4994911;28;20585;-71
2022/06/23 05:30:41;;;;;;;10.05;6.97;;;;;;;;;;4996238;28;20259;-71
2022/06/23 05:33:22;;;;;;;14.48;6.90;;;;;;;;;;4999265;28;20190;-71
2022/06/23 05:36:03;;;;;;;9.88;6.97;;;;;;;;;;4997156;28;20183;-70
2022/06/23 05:38:53;;;;;;;10.07;6.82;;;;;;;;;;4998718;28;20198;-71
2022/06/23 05:41:26;;;;;;;13.15;6.97;;;;;;;;;;4994439;28;20849;-71
2022/06/23 05:43:54;;;;;;;10.07;6.68;;;;;;;;;;4997519;28;20198;-71
2022/06/23 05:46:22;;;;;;;12.65;7.10;;;;;;;;;;4997216;28;20206;-69
2022/06/23 05:48:57;;;;;;;10.07;7.22;;;;;;;;;;5002028;28;20565;-70
2022/06/23 05:51:40;;;;;;;12.55;6.80;;;;;;;;;;5004647;28;20186;-70
2022/06/23 05:54:05;;;;;;;13.55;6.97;;;;;;;;;;5006693;28;20252;-70
2022/06/23 05:56:37;;;;;;;12.02;7.93;;;;;;;;;;5009951;28;20733;-70
2022/06/23 05:59:11;;;;;;;17.40;7.18;;;;;;;;;;5004741;28;20273;-70
2022/06/23 06:01:46;;;;;;;13.50;7.38;;;;;;;;;;5004229;28;20289;-71
2022/06/23 06:04:22;;;;;;;8.23;6.40;;;;;;;;;;5004997;28;20237;-70
2022/06/23 06:06:48;;;;;;;8.98;5.75;;;;;;;;;;5006136;28;20197;-70
2022/06/23 06:09:35;;;;;;;9.52;6.18;;;;;;;;;;5003586;28;20183;-70
2022/06/23 06:12:08;;;;;;;13.52;6.20;;;;;;;;;;5005639;28;20755;-70
2022/06/23 06:14:39;;;;;;;10.38;6.18;;;;;;;;;;5002275;28;20217;-67
2022/06/23 06:17:06;;;;;;;9.75;6.25;;;;;;;;;;5023293;28;20600;-70
2022/06/23 06:19:33;;;;;;;9.93;6.55;;;;;;;;;;5004841;28;20209;-70
2022/06/23 06:22:14;;;;;;;9.80;6.47;;;;;;;;;;5003108;28;20377;-69
2022/06/23 06:24:43;;;;;;;8.20;6.32;;;;;;;;;;5000557;28;20194;-69
2022/06/23 06:27:12;;;;;;;14.45;6.22;;;;;;;;;;5001121;28;20361;-69
2022/06/23 06:29:40;;;;;;;7.53;5.20;;;;;;;;;;5001535;28;20190;-69
2022/06/23 06:32:27;;;;;;;10.63;6.10;;;;;;;;;;5002974;28;20234;-69
2022/06/23 06:35:05;;;;;;;8.52;6.35;;;;;;;;;;5005528;28;21367;-70
2022/06/23 06:37:36;;;;;;;8.73;5.78;;;;;;;;;;5004405;28;20206;-70
2022/06/23 06:40:03;;;;;;;10.02;5.35;;;;;;;;;;5001240;28;20762;-70
2022/06/23 06:42:41;;;;;;;9.60;5.13;;;;;;;;;;5002192;28;20191;-69
2022/06/23 06:45:10;;;;;;;7.35;5.72;;;;;;;;;;5004819;28;20186;-70
2022/06/23 06:47:37;;;;;;;12.05;5.90;;;;;;;;;;5003042;28;20689;-69
2022/06/23 06:50:28;;;;;;;9.55;5.50;;;;;;;;;;5003179;28;20192;-69
2022/06/23 06:52:54;;;;;;;9.52;5.38;;;;;;;;;;4998289;28;20560;-70
2022/06/23 06:55:25;;;;;;;11.27;5.50;;;;;;;;;;4999327;28;20182;-70
2022/06/23 06:58:10;;;;;;;6.03;5.15;;;;;;;;;;5012268;28;20875;-70
2022/06/23 07:00:51;;;;;;;8.18;5.30;;;;;;;;;;4996072;28;20237;-70
2022/06/23 07:03:20;;;;;;;9.43;5.97;;;;;;;;;;4997036;28;20245;-70
2022/06/23 07:05:56;;;;;;;12.27;6.35;;;;;;;;;;4997379;28;20218;-70
2022/06/23 07:08:58;;;;;;;13.25;6.05;;;;;;;;;;4998147;28;20182;-71
2022/06/23 07:12:00;;;;;;;12.43;5.90;;;;;;;;;;4997913;28;20218;-70
2022/06/23 07:15:01;;;;;;;7.03;4.80;;;;;;;;;;4999215;28;20186;-71
2022/06/23 07:17:38;;;;;;;10.05;4.22;;;;;;;;;;4997259;28;20224;-69
2022/06/23 07:20:28;;;;;;;8.70;4.68;;;;;;;;;;4999550;28;20277;-68
2022/06/23 07:23:00;;;;;;;11.25;4.68;;;;;;;;;;5000282;28;20219;-69
2022/06/23 07:25:39;;;;;;;8.40;4.88;;;;;;;;;;4997168;28;20218;-70
2022/06/23 07:28:31;;;;;;;5.57;3.83;;;;;;;;;;4998117;28;20234;-70
2022/06/23 07:31:03;;;;;;;7.90;4.20;;;;;;;;;;4995488;28;20207;-69
2022/06/23 07:33:37;;;;;;;4.30;3.47;;;;;;;;;;4997393;28;20721;-67
2022/06/23 07:36:34;;;;;;;5.55;4.00;;;;;;;;;;4999866;28;20561;-68
2022/06/23 07:39:12;;;;;;;10.02;4.22;;;;;;;;;;5000113;28;20194;-69
2022/06/23 07:41:44;;;;;;;6.43;3.88;;;;;;;;;;4996917;28;20182;-69
2022/06/23 07:44:21;;;;;;;6.78;3.78;;;;;;;;;;4996639;28;20215;-70
2022/06/23 07:46:47;;;;;;;5.55;3.42;;;;;;;;;;4996017;28;20182;-70
2022/06/23 07:49:12;;;;;;;5.40;3.80;;;;;;;;;;4997409;28;20190;-69
2022/06/23 07:51:38;;;;;;;9.98;4.03;;;;;;;;;;4995238;28;20230;-68
2022/06/23 07:54:06;;;;;;;5.32;3.17;;;;;;;;;;4995376;28;20182;-69
2022/06/23 07:56:34;;;;;;;4.38;3.00;;;;;;;;;;4996149;28;20189;-68
2022/06/23 07:59:04;;;;;;;6.18;3.08;;;;;;;;;;4997470;28;20280;-69
2022/06/23 08:01:34;;;;;;;5.28;3.00;;;;;;;;;;4997169;28;20208;-69
2022/06/23 08:04:31;;;;;;;6.15;2.80;;;;;;;;;;4996585;28;20214;-70
2022/06/23 08:07:08;;;;;;;5.20;2.90;;;;;;;;;;4995878;28;20512;-70
2022/06/23 08:10:02;;;;;;;5.68;2.42;;;;;;;;;;4993346;28;20282;-70
2022/06/23 08:12:55;;;;;;;3.58;2.40;;;;;;;;;;4991574;28;20202;-69
2022/06/23 08:18:26;;;;;;;3.55;2.72;;;;;;;;;;4995058;28;20225;-69
2022/06/23 08:21:01;;;;;;;5.72;2.53;;;;;;;;;;4998371;28;20245;-69
2022/06/23 08:23:30;;;;;;;3.28;2.60;;;;;;;;;;4993605;28;20202;-70
2022/06/23 08:25:56;;;;;;;5.78;4.05;;;;;;;;;;4994044;28;20179;-71
2022/06/23 08:28:21;;;;;;;3.00;2.67;;;;;;;;;;4997188;28;20761;-70
2022/06/23 08:30:48;;;;;;;5.18;2.50;;;;;;;;;;4996605;28;20187;-70
2022/06/23 08:33:14;;;;;;;3.67;2.28;;;;;;;;;;4998690;28;20183;-70
2022/06/23 08:35:45;;;;;;;5.13;2.78;;;;;;;;;;4995881;28;20178;-69
2022/06/23 08:38:18;;;;;;;7.70;2.47;;;;;;;;;;4997957;28;20183;-70
2022/06/23 08:41:03;;;;;;;4.75;2.30;;;;;;;;;;4997616;28;20226;-70
2022/06/23 08:43:28;;;;;;;4.50;2.30;;;;;;;;;;4997571;28;20452;-69
2022/06/23 08:46:20;;;;;;;6.65;2.67;;;;;;;;;;4997224;28;20445;-70
2022/06/23 08:49:06;;;;;;;3.13;2.50;;;;;;;;;;4997812;28;20191;-70
2022/06/23 08:51:43;;;;;;;6.57;2.70;;;;;;;;;;4996153;28;20257;-67
2022/06/23 08:54:30;;;;;;;5.88;2.83;;;;;;;;;;4997357;28;20179;-68
2022/06/23 08:57:18;;;;;;;4.85;2.45;;;;;;;;;;4996540;28;20703;-67
2022/06/23 08:59:48;;;;;;;5.07;2.45;;;;;;;;;;4998739;28;20195;-68
2022/06/23 09:02:30;;;;;;;4.68;2.63;;;;;;;;;;4997599;28;20175;-69
2022/06/23 09:05:06;;;;;;;5.88;2.47;;;;;;;;;;4997991;28;20433;-68
2022/06/23 09:07:37;;;;;;;3.97;2.95;;;;;;;;;;4996547;28;20305;-68
2022/06/23 09:10:29;;;;;;;7.63;2.80;;;;;;;;;;4997908;28;20582;-69
2022/06/23 09:13:08;;;;;;;4.65;2.63;;;;;;;;;;4998070;28;20798;-70
2022/06/23 09:16:04;;;;;;;6.85;2.67;;;;;;;;;;4996882;28;20469;-69
2022/06/23 09:19:26;;;;;;;4.28;3.05;;;;;;;;;;4996900;28;20171;-68
2022/06/23 09:21:58;;;;;;;5.55;3.17;;;;;;;;;;4936422;29;20208;-69
2022/06/23 09:24:29;;;;;;;4.15;2.60;;;;;;;;;;4936853;28;20758;-70
2022/06/23 09:27:02;;;;;;;6.90;2.60;;;;;;;;;;4971928;28;20226;-69
2022/06/23 09:29:47;;;;;;;7.28;2.90;;;;;;;;;;4997350;28;20175;-70
2022/06/23 09:32:37;;;;;;;4.18;2.88;;;;;;;;;;4995838;28;20216;-69
2022/06/23 09:35:41;;;;;;;9.00;2.90;;;;;;;;;;4984572;28;20190;-69
2022/06/23 09:38:24;;;;;;;6.45;2.42;;;;;;;;;;4993771;28;20195;-70
2022/06/23 09:41:04;;;;;;;8.70;2.83;;;;;;;;;;4999813;28;20931;-70
2022/06/23 09:44:00;;;;;;;7.75;2.90;;;;;;;;;;4999230;28;20337;-70
2022/06/23 09:47:03;;;;;;;5.38;3.08;;;;;;;;;;4997204;28;20240;-65
2022/06/23 09:49:37;;;;;;;8.00;2.72;;;;;;;;;;4998134;28;20198;-68
2022/06/23 09:52:31;;;;;;;4.22;2.60;;;;;;;;;;4998720;28;20666;-68
2022/06/23 09:54:56;;;;;;;3.85;2.50;;;;;;;;;;4999902;28;20189;-68
2022/06/23 09:57:37;;;;;;;5.68;2.97;;;;;;;;;;4998721;28;20187;-69
2022/06/23 10:00:07;;;;;;;10.27;3.05;;;;;;;;;;4999008;28;20190;-69
2022/06/23 10:02:54;;;;;;;7.75;2.70;;;;;;;;;;4998348;28;20170;-71
2022/06/23 10:05:37;;;;;;;5.30;2.67;;;;;;;;;;4997660;28;20190;-67
2022/06/23 10:08:14;;;;;;;4.85;2.92;;;;;;;;;;4997227;28;20190;-68
2022/06/23 10:10:49;;;;;;;5.65;2.83;;;;;;;;;;4998909;28;20559;-67
2022/06/23 10:13:29;;;;;;;5.13;2.42;;;;;;;;;;4998756;28;20729;-68
2022/06/23 10:15:57;;;;;;;8.35;2.80;;;;;;;;;;4999187;28;20202;-70
2022/06/23 10:18:46;;;;;;;5.32;2.95;;;;;;;;;;5014172;28;20310;-69
2022/06/23 10:21:27;;;;;;;4.72;2.65;;;;;;;;;;4998654;28;20179;-71
2022/06/23 10:24:23;;;;;;;4.65;2.42;;;;;;;;;;4996709;28;20217;-67
2022/06/23 10:27:01;;;;;;;3.30;2.47;;;;;;;;;;4997589;28;20235;-66
2022/06/23 10:29:48;;;;;;;6.47;2.60;;;;;;;;;;4998585;28;20320;-70
2022/06/23 10:32:31;;;;;;;4.53;2.40;;;;;;;;;;4991571;28;20619;-70
2022/06/23 10:35:13;;;;;;;3.53;2.60;;;;;;;;;;4997520;28;20229;-69
2022/06/23 10:37:38;;;;;;;7.05;2.70;;;;;;;;;;5002469;28;20194;-71
2022/06/23 10:40:09;;;;;;;5.70;3.00;;;;;;;;;;4998699;28;20174;-69
2022/06/23 10:42:53;;;;;;;4.30;3.05;;;;;;;;;;4999167;28;20220;-68
2022/06/23 10:45:49;;;;;;;3.58;2.63;;;;;;;;;;4999786;28;20205;-66
2022/06/23 10:48:43;;;;;;;4.57;2.80;;;;;;;;;;4998832;28;20635;-67
2022/06/23 10:51:41;;;;;;;6.55;2.67;;;;;;;;;;4998713;28;20528;-69
2022/06/23 10:54:36;;;;;;;6.97;2.78;;;;;;;;;;4999256;28;20205;-70
2022/06/23 10:57:38;;;;;;;3.88;2.55;;;;;;;;;;4921646;28;20881;-70
2022/06/23 11:00:16;;;;;;;6.63;2.78;;;;;;;;;;4999447;28;20749;-70
2022/06/23 11:03:22;;;;;;;4.15;2.53;;;;;;;;;;4999584;28;20191;-71
2022/06/23 11:06:11;;;;;;;5.60;2.95;;;;;;;;;;4998729;28;20183;-69
2022/06/23 11:09:17;;;;;;;3.78;2.72;;;;;;;;;;5000606;28;20257;-70
2022/06/23 11:11:52;;;;;;;4.20;2.63;;;;;;;;;;4980190;28;20687;-66
2022/06/23 11:14:39;;;;;;;4.47;2.38;;;;;;;;;;4999280;28;20213;-70
2022/06/23 11:17:26;;;;;;;4.57;2.60;;;;;;;;;;4998726;28;20191;-68
2022/06/23 11:19:57;;;;;;;2.70;2.50;;;;;;;;;;4997722;28;20171;-68
2022/06/23 11:22:22;;;;;;;5.57;2.55;;;;;;;;;;4999753;28;20562;-71
2022/06/23 11:25:21;;;;;;;4.82;2.65;;;;;;;;;;4998701;28;20209;-70
2022/06/23 11:27:58;;;;;;;3.95;2.50;;;;;;;;;;4998322;28;20242;-67
2022/06/23 11:30:51;;;;;;;3.53;3.10;;;;;;;;;;4997888;28;20198;-68
2022/06/23 11:33:37;;;;;;;3.10;2.58;;;;;;;;;;4998975;28;20178;-71
2022/06/23 11:36:33;;;;;;;6.60;3.10;;;;;;;;;;5013348;28;20187;-71
2022/06/23 11:39:23;;;;;;;4.03;2.70;;;;;;;;;;5001227;28;20197;-69
2022/06/23 11:42:07;;;;;;;3.03;2.20;;;;;;;;;;4998999;28;20195;-69
2022/06/23 11:44:51;;;;;;;4.43;2.40;;;;;;;;;;4998420;28;20846;-66
2022/06/23 11:47:38;;;;;;;4.82;2.50;;;;;;;;;;4999499;28;20186;-65
2022/06/23 11:50:34;;;;;;;5.28;3.17;;;;;;;;;;5001199;28;20186;-65
2022/06/23 11:53:46;;;;;;;4.35;3.38;;;;;;;;;;5000147;28;20182;-67
2022/06/23 11:56:27;;;;;;;3.90;2.70;;;;;;;;;;5000377;28;20276;-68
2022/06/23 11:59:02;;;;;;;5.68;2.90;;;;;;;;;;4996334;28;20844;-65
2022/06/23 12:01:28;;;;;;;4.53;2.97;;;;;;;;;;4998938;28;20301;-64
2022/06/23 12:04:00;;;;;;;4.00;3.05;;;;;;;;;;4998167;28;20240;-62
2022/06/23 12:06:40;;;;;;;4.32;2.85;;;;;;;;;;4998942;28;20277;-67
2022/06/23 12:09:30;;;;;;;5.50;2.90;;;;;;;;;;4998783;28;20251;-70
2022/06/23 12:11:57;;;;;;;3.60;3.10;;;;;;;;;;4996359;28;20190;-70
2022/06/23 12:14:24;;;;;;;7.32;3.17;;;;;;;;;;4998006;28;20283;-70
2022/06/23 12:17:00;;;;;;;3.90;2.88;;;;;;;;;;4996825;28;20190;-72
2022/06/23 12:19:37;;;;;;;4.13;2.70;;;;;;;;;;4998768;28;20645;-63
2022/06/23 12:22:24;;;;;;;6.18;3.47;;;;;;;;;;4996897;28;20568;-64
2022/06/23 12:25:19;;;;;;;5.60;3.05;;;;;;;;;;5010828;28;20248;-64
2022/06/23 12:27:56;;;;;;;5.93;3.13;;;;;;;;;;4998100;28;20268;-64
2022/06/23 12:30:23;;;;;;;6.70;3.40;;;;;;;;;;4996688;28;21114;-68
2022/06/23 12:33:12;;;;;;;5.20;3.38;;;;;;;;;;4998158;28;20230;-65
2022/06/23 12:35:45;;;;;;;4.70;3.30;;;;;;;;;;4997836;28;20185;-64
2022/06/23 12:38:18;;;;;;;4.63;3.38;;;;;;;;;;4997675;28;20233;-65
2022/06/23 12:41:02;;;;;;;6.25;3.30;;;;;;;;;;4993756;28;20186;-66
2022/06/23 12:43:41;;;;;;;5.72;2.67;;;;;;;;;;4996578;28;20182;-66
2022/06/23 12:46:10;;;;;;;3.88;2.95;;;;;;;;;;4994787;28;20647;-65
2022/06/23 12:48:57;;;;;;;4.78;3.20;;;;;;;;;;4994457;28;20185;-64
2022/06/23 12:51:37;;;;;;;6.10;2.90;;;;;;;;;;4992967;28;20209;-66
2022/06/23 12:54:11;;;;;;;4.45;3.20;;;;;;;;;;5008842;28;20178;-65
2022/06/23 12:56:51;;;;;;;5.28;3.05;;;;;;;;;;4995731;28;20182;-64
2022/06/23 12:59:32;;;;;;;6.25;3.05;;;;;;;;;;4995043;28;20177;-64
2022/06/23 13:02:00;;;;;;;4.30;3.13;;;;;;;;;;4996072;28;20178;-66
2022/06/23 13:04:34;;;;;;;3.75;3.20;;;;;;;;;;4996258;28;20216;-65
2022/06/23 13:07:22;;;;;;;7.50;3.10;;;;;;;;;;4996974;28;20182;-64
2022/06/23 13:10:14;;;;;;;4.32;3.40;;;;;;;;;;4997120;28;20181;-63
2022/06/23 13:12:48;;;;;;;3.88;3.10;;;;;;;;;;4989207;28;20640;-63
2022/06/23 13:15:20;;;;;;;5.13;3.63;;;;;;;;;;4997304;28;20182;-66
2022/06/23 13:18:03;;;;;;;6.90;3.35;;;;;;;;;;4996192;28;20186;-65
2022/06/23 13:20:35;;;;;;;7.60;3.15;;;;;;;;;;4998342;28;20190;-64
2022/06/23 13:23:21;;;;;;;4.97;3.45;;;;;;;;;;4997356;28;20197;-64
2022/06/23 13:25:54;;;;;;;12.18;3.97;;;;;;;;;;4998006;28;20186;-64
2022/06/23 13:28:33;;;;;;;9.15;3.70;;;;;;;;;;4996207;28;20237;-64
2022/06/23 13:31:12;;;;;;;6.45;3.55;;;;;;;;;;4994657;28;20198;-63
2022/06/23 13:34:12;;;;;;;8.75;4.47;;;;;;;;;;4991812;28;20196;-64
2022/06/23 13:37:09;;;;;;;6.50;3.55;;;;;;;;;;4995245;28;20190;-66
2022/06/23 13:40:16;;;;;;;3.78;3.22;;;;;;;;;;4996573;28;20192;-63
2022/06/23 13:42:50;;;;;;;4.90;4.05;;;;;;;;;;5011402;28;20542;-65
2022/06/23 13:45:49;;;;;;;7.03;3.80;;;;;;;;;;4996398;28;20713;-65
2022/06/23 13:48:36;;;;;;;4.93;3.50;;;;;;;;;;4992904;28;20665;-67
2022/06/23 13:51:06;;;;;;;7.40;3.72;;;;;;;;;;4995071;28;20709;-67
2022/06/23 13:53:44;;;;;;;6.50;3.75;;;;;;;;;;4995740;28;20170;-69
2022/06/23 13:56:34;;;;;;;7.75;3.72;;;;;;;;;;4996215;28;20194;-65
2022/06/23 13:59:11;;;;;;;4.00;3.35;;;;;;;;;;4997076;28;20200;-64
2022/06/23 14:01:48;;;;;;;3.85;3.50;;;;;;;;;;4997244;28;20217;-66
2022/06/23 14:04:27;;;;;;;4.30;3.50;;;;;;;;;;4994717;28;20213;-65
2022/06/23 14:07:13;;;;;;;4.40;3.67;;;;;;;;;;4996846;28;20533;-66
2022/06/23 14:10:02;;;;;;;4.32;3.70;;;;;;;;;;4997124;28;20179;-64
2022/06/23 14:12:49;;;;;;;15.55;4.03;;;;;;;;;;4999319;28;20205;-64
2022/06/23 14:15:27;;;;;;;6.63;3.88;;;;;;;;;;4999315;28;20236;-65
2022/06/23 14:18:05;;;;;;;4.28;3.90;;;;;;;;;;5001668;28;20599;-64
2022/06/23 14:20:47;;;;;;;6.30;3.78;;;;;;;;;;5002111;28;20675;-64
2022/06/23 14:23:23;;;;;;;4.90;3.70;;;;;;;;;;4996853;28;20275;-67
2022/06/23 14:26:16;;;;;;;4.97;3.80;;;;;;;;;;4999705;28;20177;-68
2022/06/23 14:28:51;;;;;;;6.82;3.75;;;;;;;;;;4998475;28;20618;-66
2022/06/23 14:31:27;;;;;;;4.10;3.75;;;;;;;;;;5000486;28;20210;-67
2022/06/23 14:34:00;;;;;;;5.22;3.83;;;;;;;;;;4997495;28;20310;-65
2022/06/23 14:36:41;;;;;;;4.43;4.00;;;;;;;;;;4999103;28;20182;-65
2022/06/23 14:39:32;;;;;;;6.90;3.60;;;;;;;;;;5000860;28;20292;-63
2022/06/23 14:42:25;;;;;;;6.03;3.92;;;;;;;;;;5000219;28;20667;-66
2022/06/23 14:45:03;;;;;;;4.20;3.70;;;;;;;;;;5000251;28;20209;-65
2022/06/23 14:47:55;;;;;;;6.60;3.78;;;;;;;;;;5001151;28;20244;-66
2022/06/23 14:50:36;;;;;;;6.30;3.75;;;;;;;;;;5000486;28;20633;-66
2022/06/23 14:53:21;;;;;;;5.60;3.60;;;;;;;;;;5001621;28;20186;-67
2022/06/23 14:55:54;;;;;;;7.20;3.50;;;;;;;;;;4999540;28;20197;-67
2022/06/23 14:58:35;;;;;;;7.13;3.40;;;;;;;;;;5001438;28;20197;-68
2022/06/23 15:01:31;;;;;;;6.20;3.65;;;;;;;;;;4999881;28;20186;-69
2022/06/23 15:04:06;;;;;;;5.65;3.85;;;;;;;;;;5000148;28;20396;-68
2022/06/23 15:06:36;;;;;;;4.38;3.50;;;;;;;;;;4998481;28;20803;-66
2022/06/23 15:09:22;;;;;;;5.45;3.70;;;;;;;;;;5001436;28;20535;-67
2022/06/23 15:12:09;;;;;;;8.32;4.03;;;;;;;;;;4999854;28;20194;-66
2022/06/23 15:14:55;;;;;;;6.32;3.83;;;;;;;;;;4997589;28;20615;-66
2022/06/23 15:17:28;;;;;;;6.50;3.60;;;;;;;;;;5000089;28;20186;-66
2022/06/23 15:20:01;;;;;;;9.02;4.05;;;;;;;;;;5013835;28;20282;-67
2022/06/23 15:25:29;;;;;;;5.40;3.90;;;;;;;;;;4998756;28;20221;-66
2022/06/23 15:28:07;;;;;;;4.63;4.00;;;;;;;;;;4999994;28;20608;-65
2022/06/23 15:30:53;;;;;;;6.50;4.07;;;;;;;;;;5000056;28;20257;-66
2022/06/23 15:33:56;;;;;;;4.72;4.32;;;;;;;;;;5000324;28;20255;-69
2022/06/23 15:36:29;;;;;;;4.60;3.88;;;;;;;;;;5000321;28;20200;-66
2022/06/23 15:39:03;;;;;;;4.50;4.10;;;;;;;;;;4998630;28;20509;-67
2022/06/23 15:41:55;;;;;;;5.70;4.32;;;;;;;;;;4998896;28;20658;-68
2022/06/23 15:44:30;;;;;;;5.03;3.90;;;;;;;;;;4997943;28;20206;-68
2022/06/23 15:47:21;;;;;;;6.82;4.00;;;;;;;;;;4996241;28;20248;-68
2022/06/23 15:49:59;;;;;;;6.22;3.83;;;;;;;;;;4997527;28;20178;-71
2022/06/23 15:52:50;;;;;;;8.52;4.30;;;;;;;;;;4997012;28;20185;-69
2022/06/23 15:55:26;;;;;;;6.80;6.05;;;;;;;;;;4993742;28;20194;-70
2022/06/23 15:58:15;;;;;;;5.18;4.15;;;;;;;;;;4995853;28;20190;-70
2022/06/23 16:00:52;;;;;;;5.85;3.70;;;;;;;;;;4989294;28;20600;-69
2022/06/23 16:03:32;;;;;;;6.97;3.67;;;;;;;;;;4999779;28;20206;-67